Altheimer, Arkansas
Current Conditions -  °F | °C
As of 2:53 AM on Thursday 27 Nov 2014 (Local Time) from KPBF Reporting Station
Clear Clear  
Wind Chill: 34°   Ceiling: Unl
Heat Index: 39°   Visibility: 10mi
Dew Point: 27°   Wind: 7mph
Humidity: 62%   Direction: 300°WNW
Pressure: 30.36"   Gusts: NA
Location:  34.32°N, 91.85°W
Report Text: KPBF 270853Z AUTO 30006KT 10SM CLR 04/M03 A3036 RMK AO2 SLP281 T00391028 53024
Loading
Personal Weather Stations






























Interactive Weather Map New forecast layout! Learn more

10-Day Weather Forecast

Advertisements
Track Severe Weather on mobile